Time,TemperatureF,DewpointF,PressureIn,WindDirection,WindDirectionDegrees,WindSpeedMPH,WindSpeedGustMPH,Humidity,HourlyPrecipIn,Conditions,Clouds,dailyrainin,SoftwareType,DateUTC
2013-07-31 06:21:00,72.6,72.3,30.08,NE,54,0.0,2.0,99,0.00,,,0.00,VWS V14.00,2013-07-31 10:21:00,
2013-07-31 06:26:00,72.7,72.4,30.08,NE,54,0.0,0.0,99,0.00,,,0.00,VWS V14.00,2013-07-31 10:26:00,
2013-07-31 06:31:00,72.8,72.5,30.08,NE,54,0.0,0.0,99,0.00,,,0.00,VWS V14.00,2013-07-31 10:31:00,
2013-07-31 06:37:00,72.8,72.5,30.08,NE,54,0.0,0.0,99,0.00,,,0.00,VWS V14.00,2013-07-31 10:37:00,
2013-07-31 06:42:00,72.8,72.5,30.08,NE,53,0.0,0.0,99,0.00,,,0.00,VWS V14.00,2013-07-31 10:42:00,
2013-07-31 06:47:00,72.8,72.5,30.08,NE,54,0.0,0.0,99,0.00,,,0.00,VWS V14.00,2013-07-31 10:47:00,
2013-07-31 06:52:00,72.8,72.5,30.08,NE,54,0.0,0.0,99,0.00,,,0.00,VWS V14.00,2013-07-31 10:52:00,
2013-07-31 06:57:00,72.8,72.5,30.09,NE,54,0.0,0.0,99,0.00,,,0.00,VWS V14.00,2013-07-31 10:57:00,
2013-07-31 07:02:00,72.9,72.6,30.09,NE,53,0.0,0.0,99,0.00,,,0.00,VWS V14.00,2013-07-31 11:02:00,
2013-07-31 07:07:00,72.9,72.6,30.09,NE,54,0.0,0.0,99,0.00,,,0.00,VWS V14.00,2013-07-31 11:07:00,
2013-07-31 07:12:00,73.0,72.7,30.09,NE,54,0.0,0.0,99,0.00,,,0.00,VWS V14.00,2013-07-31 11:12:00,
2013-07-31 07:18:00,73.1,72.8,30.09,NE,53,0.0,0.0,99,0.00,,,0.00,VWS V14.00,2013-07-31 11:18:00,
2013-07-31 07:23:00,73.2,72.9,30.09,NE,53,0.0,0.0,99,0.00,,,0.00,VWS V14.00,2013-07-31 11:23:00,
2013-07-31 07:28:00,73.3,73.0,30.09,NE,53,0.0,0.0,99,0.00,,,0.00,VWS V14.00,2013-07-31 11:28:00,
2013-07-31 07:33:00,73.4,73.1,30.09,NE,54,0.0,0.0,99,0.00,,,0.00,VWS V14.00,2013-07-31 11:33:00,
2013-07-31 07:38:00,73.5,73.2,30.09,NE,54,0.0,0.0,99,0.00,,,0.00,VWS V14.00,2013-07-31 11:38:00,
2013-07-31 07:43:00,73.7,73.4,30.08,NE,54,0.0,0.0,99,0.00,,,0.00,VWS V14.00,2013-07-31 11:43:00,
2013-07-31 07:48:00,74.0,73.7,30.09,NE,53,0.0,0.0,99,0.00,,,0.00,VWS V14.00,2013-07-31 11:48:00,
2013-07-31 07:53:00,74.2,73.9,30.09,NE,53,0.0,0.0,99,0.00,,,0.00,VWS V14.00,2013-07-31 11:53:00,
2013-07-31 07:59:00,74.4,74.1,30.08,NE,54,0.0,1.0,99,0.00,,,0.00,VWS V14.00,2013-07-31 11:59:00,
2013-07-31 08:04:00,74.7,74.7,30.09,NE,54,0.0,0.0,100,0.00,,,0.00,VWS V14.00,2013-07-31 12:04:00,
2013-07-31 08:09:00,75.1,74.8,30.08,NE,53,0.0,0.0,99,0.00,,,0.00,VWS V14.00,2013-07-31 12:09:00,
2013-07-31 08:14:00,75.7,75.7,30.08,NE,53,0.0,0.0,100,0.00,,,0.00,VWS V14.00,2013-07-31 12:14:00,
2013-07-31 08:19:00,76.2,76.2,30.08,NE,54,0.0,2.0,100,0.00,,,0.00,VWS V14.00,2013-07-31 12:19:00,
2013-07-31 08:24:00,76.5,76.5,30.08,NE,54,0.0,1.0,100,0.00,,,0.00,VWS V14.00,2013-07-31 12:24:00,
2013-07-31 08:30:00,77.0,77.0,30.08,NE,54,0.0,2.0,100,0.00,,,0.00,VWS V14.00,2013-07-31 12:30:00,
2013-07-31 08:35:00,77.4,77.4,30.08,NE,53,0.0,0.0,100,0.00,,,0.00,VWS V14.00,2013-07-31 12:35:00,
2013-07-31 08:40:00,78.2,78.2,30.08,NE,53,0.0,1.0,100,0.00,,,0.00,VWS V14.00,2013-07-31 12:40:00,
2013-07-31 08:45:00,78.7,78.4,30.08,NE,54,0.0,1.0,99,0.00,,,0.00,VWS V14.00,2013-07-31 12:45:00,
2013-07-31 08:50:00,78.9,78.3,30.08,NE,54,0.0,1.0,98,0.00,,,0.00,VWS V14.00,2013-07-31 12:50:00,
2013-07-31 08:55:00,79.3,78.7,30.08,ENE,63,0.0,1.0,98,0.00,,,0.00,VWS V14.00,2013-07-31 12:55:00,
2013-07-31 09:00:00,79.5,78.3,30.08,ENE,63,0.0,1.0,96,0.00,,,0.00,VWS V14.00,2013-07-31 13:00:00,
2013-07-31 09:05:00,79.8,78.6,30.08,ENE,63,0.0,1.0,96,0.00,,,0.00,VWS V14.00,2013-07-31 13:05:00,
2013-07-31 09:11:00,80.3,78.7,30.09,SE,125,0.0,2.0,95,0.00,,,0.00,VWS V14.00,2013-07-31 13:11:00,
2013-07-31 09:15:00,81.1,79.2,30.09,SE,136,0.0,3.0,94,0.00,,,0.00,VWS V14.00,2013-07-31 13:15:00,
2013-07-31 09:16:00,81.0,79.1,30.09,SE,136,0.0,3.0,94,0.00,,,0.00,VWS V14.00,2013-07-31 13:16:00,
2013-07-31 09:21:00,81.1,79.2,30.09,SE,136,0.0,3.0,94,0.00,,,0.00,VWS V14.00,2013-07-31 13:21:00,
2013-07-31 13:43:00,83.5,78.2,30.07,ESE,123,1.0,3.0,84,0.00,,,0.00,VWS V14.00,2013-07-31 17:43:00,
2013-07-31 13:48:00,83.4,78.1,30.06,SSE,148,0.0,4.0,84,0.00,,,0.00,VWS V14.00,2013-07-31 17:48:00,
2013-07-31 13:53:00,83.4,77.7,30.06,ESE,119,1.0,5.0,83,0.00,,,0.00,VWS V14.00,2013-07-31 17:53:00,
2013-07-31 13:58:00,83.4,78.1,30.06,East,101,0.0,5.0,84,0.00,,,0.00,VWS V14.00,2013-07-31 17:58:00,
2013-07-31 14:04:00,83.5,78.2,30.06,ESE,110,0.0,1.0,84,0.00,,,0.00,VWS V14.00,2013-07-31 18:04:00,
2013-07-31 14:09:00,83.6,78.3,30.06,SSW,204,0.0,5.0,84,0.00,,,0.00,VWS V14.00,2013-07-31 18:09:00,
2013-07-31 14:14:00,83.6,78.3,30.06,ESE,110,0.0,2.0,84,0.00,,,0.00,VWS V14.00,2013-07-31 18:14:00,
2013-07-31 14:19:00,83.7,78.3,30.06,ESE,111,0.0,2.0,84,0.00,,,0.00,VWS V14.00,2013-07-31 18:19:00,
2013-07-31 14:24:00,83.6,78.3,30.06,South,178,0.0,3.0,84,0.00,,,0.00,VWS V14.00,2013-07-31 18:24:00,
2013-07-31 14:29:00,83.6,78.3,30.06,ESE,114,0.0,3.0,84,0.00,,,0.00,VWS V14.00,2013-07-31 18:29:00,
2013-07-31 14:34:00,83.4,78.1,30.06,ESE,114,0.0,2.0,84,0.00,,,0.00,VWS V14.00,2013-07-31 18:34:00,
2013-07-31 14:39:00,83.4,78.4,30.05,ESE,119,0.0,2.0,85,0.00,,,0.00,VWS V14.00,2013-07-31 18:39:00,
2013-07-31 14:44:00,83.4,77.7,30.05,ESE,121,1.0,4.0,83,0.00,,,0.00,VWS V14.00,2013-07-31 18:44:00,
2013-07-31 14:49:00,83.3,77.6,30.05,ESE,121,1.0,4.0,83,0.00,,,0.00,VWS V14.00,2013-07-31 18:49:00,
2013-07-31 14:55:00,83.2,77.9,30.05,ESE,121,0.0,2.0,84,0.00,,,0.00,VWS V14.00,2013-07-31 18:55:00,
2013-07-31 15:00:00,83.1,78.1,30.05,SE,142,0.0,3.0,85,0.00,,,0.00,VWS V14.00,2013-07-31 19:00:00,
2013-07-31 15:05:00,83.0,78.4,30.05,SSE,153,0.0,1.0,86,0.00,,,0.00,VWS V14.00,2013-07-31 19:05:00,
2013-07-31 15:10:00,82.9,77.9,30.05,SSE,149,0.0,2.0,85,0.00,,,0.00,VWS V14.00,2013-07-31 19:10:00,
2013-07-31 15:15:00,82.7,77.7,30.05,ESE,107,0.0,2.0,85,0.00,,,0.00,VWS V14.00,2013-07-31 19:15:00,
2013-07-31 15:20:00,82.6,78.0,30.04,ESE,107,1.0,2.0,86,0.00,,,0.00,VWS V14.00,2013-07-31 19:20:00,
2013-07-31 15:26:00,82.6,78.0,30.04,ESE,107,0.0,2.0,86,0.00,,,0.00,VWS V14.00,2013-07-31 19:26:00,
2013-07-31 15:31:00,82.6,78.0,30.04,SSW,198,0.0,3.0,86,0.00,,,0.00,VWS V14.00,2013-07-31 19:31:00,
2013-07-31 15:36:00,82.7,78.1,30.04,SE,131,0.0,2.0,86,0.00,,,0.00,VWS V14.00,2013-07-31 19:36:00,
2013-07-31 15:41:00,82.7,78.1,30.04,SE,131,0.0,0.0,86,0.00,,,0.00,VWS V14.00,2013-07-31 19:41:00,
2013-07-31 15:46:00,82.6,78.3,30.04,SE,130,0.0,0.0,87,0.00,,,0.00,VWS V14.00,2013-07-31 19:46:00,
2013-07-31 15:51:00,82.7,78.4,30.04,SE,140,0.0,0.0,87,0.00,,,0.00,VWS V14.00,2013-07-31 19:51:00,
2013-07-31 15:56:00,82.7,78.4,30.03,SE,140,0.0,1.0,87,0.00,,,0.00,VWS V14.00,2013-07-31 19:56:00,
2013-07-31 16:02:00,82.8,78.5,30.03,SE,140,0.0,0.0,87,0.00,,,0.00,VWS V14.00,2013-07-31 20:02:00,
2013-07-31 16:07:00,82.8,78.9,30.03,SE,140,0.0,1.0,88,0.00,,,0.00,VWS V14.00,2013-07-31 20:07:00,
2013-07-31 16:12:00,82.7,78.4,30.03,SE,140,0.0,0.0,87,0.00,,,0.00,VWS V14.00,2013-07-31 20:12:00,
2013-07-31 16:17:00,82.6,78.3,30.02,SSE,164,0.0,2.0,87,0.00,,,0.00,VWS V14.00,2013-07-31 20:17:00,
2013-07-31 16:22:00,82.6,78.7,30.02,SSE,164,0.0,1.0,88,0.00,,,0.00,VWS V14.00,2013-07-31 20:22:00,
2013-07-31 16:27:00,82.6,78.7,30.02,SSE,148,0.0,2.0,88,0.00,,,0.00,VWS V14.00,2013-07-31 20:27:00,
2013-07-31 16:32:00,82.5,78.6,30.02,East,92,0.0,3.0,88,0.00,,,0.00,VWS V14.00,2013-07-31 20:32:00,
2013-07-31 16:38:00,82.5,78.6,30.02,East,94,0.0,3.0,88,0.00,,,0.00,VWS V14.00,2013-07-31 20:38:00,
2013-07-31 16:43:00,82.5,78.6,30.02,ESE,105,0.0,0.0,88,0.00,,,0.00,VWS V14.00,2013-07-31 20:43:00,
2013-07-31 16:57:00,82.4,78.1,30.02,ESE,115,0.0,2.0,87,0.00,,,0.00,VWS V14.00,2013-07-31 20:57:00,
2013-07-31 17:02:00,82.4,78.1,30.01,ESE,115,1.0,1.0,87,0.00,,,0.00,VWS V14.00,2013-07-31 21:02:00,
2013-07-31 17:08:00,82.4,78.5,30.01,SE,146,0.0,2.0,88,0.00,,,0.00,VWS V14.00,2013-07-31 21:08:00,
2013-07-31 17:13:00,82.4,78.1,30.01,SSE,156,0.0,0.0,87,0.00,,,0.00,VWS V14.00,2013-07-31 21:13:00,
2013-07-31 17:18:00,82.3,78.1,30.01,ESE,113,0.0,2.0,87,0.00,,,0.00,VWS V14.00,2013-07-31 21:18:00,
2013-07-31 17:23:00,82.4,78.5,30.01,ESE,113,0.0,1.0,88,0.00,,,0.00,VWS V14.00,2013-07-31 21:23:00,
2013-07-31 17:28:00,82.4,78.1,30.01,ESE,113,0.0,2.0,87,0.00,,,0.00,VWS V14.00,2013-07-31 21:28:00,
2013-07-31 17:33:00,82.3,77.7,30.00,East,82,2.0,3.0,86,0.00,,,0.00,VWS V14.00,2013-07-31 21:33:00,
2013-07-31 17:38:00,82.3,78.1,30.01,East,96,0.0,3.0,87,0.00,,,0.00,VWS V14.00,2013-07-31 21:38:00,
2013-07-31 17:44:00,82.2,77.9,30.01,East,97,0.0,1.0,87,0.00,,,0.00,VWS V14.00,2013-07-31 21:44:00,
2013-07-31 17:49:00,82.2,78.3,30.01,East,97,0.0,1.0,88,0.00,,,0.00,VWS V14.00,2013-07-31 21:49:00,
2013-07-31 17:54:00,82.1,78.2,30.00,SE,136,0.0,3.0,88,0.00,,,0.00,VWS V14.00,2013-07-31 21:54:00,
2013-07-31 17:59:00,82.1,78.5,30.00,SE,136,0.0,3.0,89,0.00,,,0.00,VWS V14.00,2013-07-31 21:59:00,
2013-07-31 18:04:00,82.0,78.4,30.00,SE,136,0.0,0.0,89,0.00,,,0.00,VWS V14.00,2013-07-31 22:04:00,
2013-07-31 18:09:00,81.9,78.0,29.99,ESE,113,0.0,3.0,88,0.00,,,0.00,VWS V14.00,2013-07-31 22:09:00,
2013-07-31 18:14:00,81.9,78.0,30.00,ENE,76,0.0,2.0,88,0.00,,,0.00,VWS V14.00,2013-07-31 22:14:00,
2013-07-31 18:19:00,81.9,78.0,30.00,ENE,76,0.0,2.0,88,0.00,,,0.00,VWS V14.00,2013-07-31 22:19:00,
2013-07-31 18:24:00,82.0,78.1,30.00,ENE,76,0.0,0.0,88,0.00,,,0.00,VWS V14.00,2013-07-31 22:24:00,
2013-07-31 18:30:00,82.0,78.4,29.99,ENE,76,0.0,0.0,89,0.00,,,0.00,VWS V14.00,2013-07-31 22:30:00,
2013-07-31 18:35:00,81.9,78.3,29.99,East,97,0.0,2.0,89,0.00,,,0.00,VWS V14.00,2013-07-31 22:35:00,
2013-07-31 18:40:00,81.8,77.9,29.99,East,97,0.0,2.0,88,0.00,,,0.00,VWS V14.00,2013-07-31 22:40:00,
2013-07-31 18:45:00,81.8,78.2,29.99,East,97,0.0,0.0,89,0.00,,,0.00,VWS V14.00,2013-07-31 22:45:00,
2013-07-31 18:50:00,81.7,78.2,29.99,East,96,0.0,0.0,89,0.00,,,0.00,VWS V14.00,2013-07-31 22:50:00,
2013-07-31 18:55:00,81.6,78.1,29.99,East,96,0.0,0.0,89,0.00,,,0.00,VWS V14.00,2013-07-31 22:55:00,
2013-07-31 19:00:00,81.5,77.9,29.99,East,96,0.0,0.0,89,0.00,,,0.00,VWS V14.00,2013-07-31 23:00:00,
2013-07-31 19:05:00,81.4,78.2,30.00,East,97,0.0,0.0,90,0.00,,,0.00,VWS V14.00,2013-07-31 23:05:00,
2013-07-31 19:10:00,81.2,78.0,30.00,East,97,0.0,0.0,90,0.00,,,0.00,VWS V14.00,2013-07-31 23:10:00,
2013-07-31 19:15:00,81.1,77.9,30.00,East,97,0.0,0.0,90,0.00,,,0.00,VWS V14.00,2013-07-31 23:15:00,
2013-07-31 19:21:00,80.9,78.0,30.01,East,97,0.0,0.0,91,0.00,,,0.00,VWS V14.00,2013-07-31 23:21:00,
2013-07-31 19:26:00,80.8,77.6,30.01,East,96,0.0,0.0,90,0.00,,,0.00,VWS V14.00,2013-07-31 23:26:00,
2013-07-31 19:31:00,80.7,77.8,30.01,East,96,0.0,0.0,91,0.00,,,0.00,VWS V14.00,2013-07-31 23:31:00,
2013-07-31 19:36:00,80.5,77.6,30.02,East,97,0.0,0.0,91,0.00,,,0.00,VWS V14.00,2013-07-31 23:36:00,
2013-07-31 19:41:00,80.4,77.9,30.01,East,96,0.0,0.0,92,0.00,,,0.00,VWS V14.00,2013-07-31 23:41:00,
2013-07-31 19:46:00,80.3,77.8,30.01,East,97,0.0,0.0,92,0.00,,,0.00,VWS V14.00,2013-07-31 23:46:00,
2013-07-31 19:51:00,80.2,78.0,30.01,East,97,0.0,0.0,93,0.00,,,0.00,VWS V14.00,2013-07-31 23:51:00,
2013-07-31 19:56:00,80.1,77.9,30.01,East,97,0.0,0.0,93,0.00,,,0.00,VWS V14.00,2013-07-31 23:56:00,
2013-07-31 20:01:00,79.9,77.7,30.01,East,97,0.0,0.0,93,0.00,,,0.00,VWS V14.00,2013-08-01 00:01:00,
2013-07-31 20:07:00,79.6,77.7,30.01,East,97,0.0,0.0,94,0.00,,,0.00,VWS V14.00,2013-08-01 00:07:00,
2013-07-31 20:12:00,79.5,77.6,30.01,East,97,0.0,0.0,94,0.00,,,0.00,VWS V14.00,2013-08-01 00:12:00,
2013-07-31 20:18:00,79.4,77.5,30.01,East,97,0.0,0.0,94,0.00,,,0.00,VWS V14.00,2013-08-01 00:18:00,
2013-07-31 20:23:00,79.3,77.4,30.01,East,97,0.0,0.0,94,0.00,,,0.00,VWS V14.00,2013-08-01 00:23:00,
2013-07-31 20:28:00,79.1,77.6,30.01,East,97,0.0,0.0,95,0.00,,,0.00,VWS V14.00,2013-08-01 00:28:00,
2013-07-31 20:33:00,79.1,77.6,30.02,East,97,0.0,0.0,95,0.00,,,0.00,VWS V14.00,2013-08-01 00:33:00,
2013-07-31 20:38:00,79.0,77.4,30.02,East,96,0.0,0.0,95,0.00,,,0.00,VWS V14.00,2013-08-01 00:38:00,
2013-07-31 20:43:00,79.0,77.4,30.02,East,97,0.0,0.0,95,0.00,,,0.00,VWS V14.00,2013-08-01 00:43:00,
2013-07-31 20:49:00,78.9,77.3,30.02,East,97,0.0,0.0,95,0.00,,,0.00,VWS V14.00,2013-08-01 00:49:00,
2013-07-31 20:54:00,78.9,77.7,30.01,East,97,0.0,0.0,96,0.00,,,0.00,VWS V14.00,2013-08-01 00:54:00,
2013-07-31 20:59:00,78.8,77.6,30.02,East,97,0.0,0.0,96,0.00,,,0.00,VWS V14.00,2013-08-01 00:59:00,
2013-07-31 21:04:00,78.9,77.7,30.01,East,97,0.0,0.0,96,0.00,,,0.00,VWS V14.00,2013-08-01 01:04:00,
2013-07-31 21:09:00,78.8,77.6,30.01,East,97,0.0,0.0,96,0.00,,,0.00,VWS V14.00,2013-08-01 01:09:00,
2013-07-31 21:14:00,78.8,77.6,30.01,East,96,0.0,0.0,96,0.00,,,0.00,VWS V14.00,2013-08-01 01:14:00,
2013-07-31 21:19:00,78.7,77.5,30.01,East,97,0.0,0.0,96,0.00,,,0.00,VWS V14.00,2013-08-01 01:19:00,
2013-07-31 21:24:00,78.7,77.5,30.01,East,96,0.0,0.0,96,0.00,,,0.00,VWS V14.00,2013-08-01 01:24:00,
2013-07-31 21:29:00,78.7,77.8,30.01,East,97,0.0,0.0,97,0.00,,,0.00,VWS V14.00,2013-08-01 01:29:00,
2013-07-31 21:35:00,78.6,77.7,30.01,East,97,0.0,0.0,97,0.00,,,0.00,VWS V14.00,2013-08-01 01:35:00,
2013-07-31 21:40:00,78.6,77.7,30.01,East,97,0.0,0.0,97,0.00,,,0.00,VWS V14.00,2013-08-01 01:40:00,
2013-07-31 21:45:00,78.6,77.7,30.01,East,97,0.0,0.0,97,0.00,,,0.00,VWS V14.00,2013-08-01 01:45:00,
2013-07-31 21:50:00,78.5,77.6,30.01,East,97,0.0,0.0,97,0.00,,,0.00,VWS V14.00,2013-08-01 01:50:00,
2013-07-31 21:55:00,78.5,77.6,30.01,East,96,0.0,0.0,97,0.00,,,0.00,VWS V14.00,2013-08-01 01:55:00,
2013-07-31 22:00:00,78.4,77.5,30.01,East,97,0.0,0.0,97,0.00,,,0.00,VWS V14.00,2013-08-01 02:00:00,
2013-07-31 22:06:00,78.4,77.5,30.01,East,96,0.0,0.0,97,0.00,,,0.00,VWS V14.00,2013-08-01 02:06:00,
2013-07-31 22:11:00,78.4,77.5,30.01,East,97,0.0,0.0,97,0.00,,,0.00,VWS V14.00,2013-08-01 02:11:00,
2013-07-31 22:16:00,78.3,77.4,30.01,East,96,0.0,0.0,97,0.00,,,0.00,VWS V14.00,2013-08-01 02:16:00,
2013-07-31 22:21:00,78.3,77.4,30.01,East,97,0.0,0.0,97,0.01,,,0.01,VWS V14.00,2013-08-01 02:21:00,
2013-07-31 22:26:00,78.2,77.3,30.00,East,97,0.0,0.0,97,0.01,,,0.01,VWS V14.00,2013-08-01 02:26:00,
2013-07-31 22:31:00,78.2,77.3,30.00,East,97,0.0,0.0,97,0.01,,,0.01,VWS V14.00,2013-08-01 02:31:00,
2013-07-31 22:37:00,78.2,77.3,30.00,East,96,0.0,0.0,97,0.01,,,0.01,VWS V14.00,2013-08-01 02:37:00,
2013-07-31 22:42:00,78.2,77.3,30.00,East,97,0.0,0.0,97,0.01,,,0.01,VWS V14.00,2013-08-01 02:42:00,
2013-07-31 22:47:00,78.1,77.5,30.00,East,97,0.0,0.0,98,0.01,,,0.01,VWS V14.00,2013-08-01 02:47:00,
2013-07-31 22:52:00,78.1,77.5,30.00,East,96,0.0,0.0,98,0.01,,,0.01,VWS V14.00,2013-08-01 02:52:00,
2013-07-31 22:57:00,78.1,77.5,30.00,East,97,0.0,0.0,98,0.01,,,0.01,VWS V14.00,2013-08-01 02:57:00,
2013-07-31 23:02:00,78.1,77.5,30.00,East,97,0.0,0.0,98,0.01,,,0.01,VWS V14.00,2013-08-01 03:02:00,
2013-07-31 23:08:00,78.0,77.4,29.99,East,97,0.0,0.0,98,0.01,,,0.01,VWS V14.00,2013-08-01 03:08:00,
2013-07-31 23:13:00,78.0,77.4,29.99,East,96,0.0,0.0,98,0.01,,,0.01,VWS V14.00,2013-08-01 03:13:00,
2013-07-31 23:18:00,78.0,77.4,29.99,East,97,0.0,0.0,98,0.01,,,0.01,VWS V14.00,2013-08-01 03:18:00,
2013-07-31 23:23:00,77.9,77.3,29.99,East,97,0.0,0.0,98,0.00,,,0.01,VWS V14.00,2013-08-01 03:23:00,
2013-07-31 23:28:00,77.9,77.3,29.99,East,97,0.0,0.0,98,0.00,,,0.01,VWS V14.00,2013-08-01 03:28:00,
2013-07-31 23:33:00,77.8,77.2,29.99,East,96,0.0,0.0,98,0.00,,,0.01,VWS V14.00,2013-08-01 03:33:00,
2013-07-31 23:38:00,77.8,77.2,29.99,East,97,0.0,0.0,98,0.00,,,0.01,VWS V14.00,2013-08-01 03:38:00,
2013-07-31 23:43:00,77.8,77.2,29.99,East,97,0.0,0.0,98,0.00,,,0.01,VWS V14.00,2013-08-01 03:43:00,
2013-07-31 23:48:00,77.8,77.2,29.99,East,97,0.0,0.0,98,0.00,,,0.01,VWS V14.00,2013-08-01 03:48:00,
2013-07-31 23:53:00,77.8,77.2,29.99,East,96,0.0,0.0,98,0.00,,,0.01,VWS V14.00,2013-08-01 03:53:00,
2013-07-31 23:58:00,77.8,77.2,29.99,East,97,0.0,0.0,98,0.00,,,0.01,VWS V14.00,2013-08-01 03:58:00,